Terminal Aerodrome Forecast
Issued by NWS Melbourne, FL

Home | Current Version | Previous Version | Text Only | Print | Product List | Glossary On
Versions: 1 2 3 4 5 6 7 8 9 10 11 12 13 14
000
FTUS42 KMLB 251736
TAFMLB
TAF
KMLB 251736Z 2518/2618 08009KT P6SM SCT040 SCT300
     FM252000 12010KT P6SM FEW035 SCT060 SCT300
     FM260300 VRB04KT P6SM SCT300
     FM261300 VRB03KT P6SM SCT250
     FM261630 09008KT P6SM SCT035 SCT250=

USA.gov is the U.S. government's official web portal to all federal, state and local government web resources and services.